createdAt,value
2023-03-24T00:02:04.075Z,98.60
2023-03-24T00:04:35.559Z,98.60
2023-03-24T00:07:09.763Z,98.70
2023-03-24T00:09:40.699Z,98.70
2023-03-24T00:12:12.313Z,98.80
2023-03-24T00:14:43.676Z,98.80
2023-03-24T00:17:17.780Z,98.80
2023-03-24T00:19:50.563Z,99.00
2023-03-24T00:22:23.935Z,98.80
2023-03-24T00:24:55.105Z,98.90
2023-03-24T00:27:25.749Z,98.90
2023-03-24T00:29:59.390Z,99.00
2023-03-24T00:32:30.699Z,99.00
2023-03-24T00:35:02.440Z,99.00
2023-03-24T00:37:37.900Z,99.10
2023-03-24T00:40:12.869Z,99.00
2023-03-24T00:42:46.346Z,99.10
2023-03-24T00:45:18.618Z,99.20
2023-03-24T00:47:50.487Z,99.10
2023-03-24T00:50:27.611Z,99.20
2023-03-24T00:53:02.363Z,99.10
2023-03-24T00:55:34.353Z,99.20
2023-03-24T00:58:04.965Z,99.30
2023-03-24T01:00:35.996Z,99.20
2023-03-24T01:03:06.821Z,99.20
2023-03-24T01:05:37.768Z,99.10
2023-03-24T01:08:11.772Z,99.10
2023-03-24T01:10:53.436Z,99.10
2023-03-24T01:13:24.477Z,99.00
2023-03-24T01:15:55.767Z,99.10
2023-03-24T01:18:28.006Z,99.10
2023-03-24T01:20:59.638Z,99.10
2023-03-24T01:23:32.893Z,99.20
2023-03-24T01:26:06.640Z,99.40
2023-03-24T01:28:41.257Z,99.50
2023-03-24T01:31:13.070Z,99.60
2023-03-24T01:33:44.054Z,99.80
2023-03-24T01:36:15.018Z,99.90
2023-03-24T01:38:48.352Z,99.90
2023-03-24T01:41:19.395Z,99.90
2023-03-24T01:43:50.113Z,99.90
2023-03-24T01:46:22.132Z,99.90
2023-03-24T01:48:56.260Z,99.90
2023-03-24T01:51:28.641Z,99.90
2023-03-24T01:54:03.196Z,99.90
2023-03-24T01:56:35.699Z,99.90
2023-03-24T01:59:09.958Z,99.90
2023-03-24T02:02:07.005Z,99.90
2023-03-24T02:04:48.772Z,99.90
2023-03-24T02:07:23.053Z,99.90
2023-03-24T02:09:56.473Z,99.90
2023-03-24T02:12:27.418Z,99.90
2023-03-24T02:15:00.002Z,99.90
2023-03-24T02:17:39.724Z,99.90
2023-03-24T02:20:25.556Z,99.90
2023-03-24T02:23:04.492Z,99.90
2023-03-24T02:25:55.282Z,99.90
2023-03-24T02:28:34.246Z,99.90
2023-03-24T02:31:24.564Z,99.90
2023-03-24T02:34:05.936Z,99.90
2023-03-24T02:36:48.761Z,99.90
2023-03-24T02:39:40.526Z,99.90
2023-03-24T02:42:16.827Z,99.90
2023-03-24T02:44:51.518Z,99.90
2023-03-24T02:47:27.199Z,99.90
2023-03-24T02:50:01.486Z,99.90
2023-03-24T02:52:37.634Z,99.90
2023-03-24T02:55:12.073Z,99.90
2023-03-24T02:57:46.744Z,99.90
2023-03-24T03:00:20.376Z,99.90
2023-03-24T03:03:13.006Z,99.90
2023-03-24T03:05:46.695Z,99.90
2023-03-24T03:08:21.938Z,99.90
2023-03-24T03:10:55.082Z,99.90
2023-03-24T03:13:29.817Z,99.90
2023-03-24T03:16:03.596Z,99.90
2023-03-24T03:18:35.697Z,99.90
2023-03-24T03:21:09.746Z,99.90
2023-03-24T03:23:41.741Z,99.90
2023-03-24T03:26:16.847Z,99.90
2023-03-24T03:28:58.334Z,99.90
2023-03-24T03:31:37.519Z,99.90
2023-03-24T03:34:11.925Z,99.90
2023-03-24T03:36:47.146Z,99.90
2023-03-24T03:39:19.751Z,99.90
2023-03-24T03:41:50.855Z,99.90
2023-03-24T03:44:24.833Z,99.90
2023-03-24T03:46:55.908Z,99.90
2023-03-24T03:49:36.834Z,99.90
2023-03-24T03:52:08.368Z,99.90
2023-03-24T03:54:40.683Z,99.90
2023-03-24T03:57:11.768Z,99.90
2023-03-24T03:59:56.924Z,99.90
2023-03-24T04:02:36.345Z,99.90
2023-03-24T04:05:19.601Z,99.90
2023-03-24T04:08:26.114Z,99.90
2023-03-24T04:11:17.328Z,99.90
2023-03-24T04:14:13.727Z,99.90
2023-03-24T04:16:57.175Z,99.90
2023-03-24T04:19:37.169Z,99.90
2023-03-24T04:22:15.860Z,99.90
2023-03-24T04:24:52.258Z,99.90
2023-03-24T04:27:30.229Z,99.90
2023-03-24T04:30:06.786Z,99.90
2023-03-24T04:32:46.797Z,99.90
2023-03-24T04:35:26.785Z,99.90
2023-03-24T04:38:28.752Z,99.90
2023-03-24T04:41:14.577Z,99.90
2023-03-24T04:43:46.320Z,99.90
2023-03-24T04:46:18.696Z,99.90
2023-03-24T04:49:03.263Z,99.90
2023-03-24T04:51:37.600Z,99.90
2023-03-24T04:54:11.718Z,99.90
2023-03-24T04:56:49.082Z,99.90
2023-03-24T04:59:43.346Z,99.90
2023-03-24T05:02:14.948Z,99.90
2023-03-24T05:05:17.672Z,99.90
2023-03-24T05:07:52.215Z,99.90
2023-03-24T05:10:22.800Z,99.90
2023-03-24T05:12:58.665Z,99.90
2023-03-24T05:15:38.308Z,99.90
2023-03-24T05:18:23.890Z,99.90
2023-03-24T05:20:57.094Z,99.90
2023-03-24T05:23:28.298Z,99.90
2023-03-24T05:26:00.510Z,99.90
2023-03-24T05:28:35.333Z,99.90
2023-03-24T05:31:06.113Z,99.90
2023-03-24T05:34:00.531Z,99.90
2023-03-24T05:36:35.096Z,99.90
2023-03-24T05:39:06.579Z,99.90
2023-03-24T05:41:47.575Z,99.90
2023-03-24T05:44:18.502Z,99.90
2023-03-24T05:47:00.730Z,99.90
2023-03-24T05:49:32.059Z,99.90
2023-03-24T05:52:06.311Z,99.90
2023-03-24T05:54:37.335Z,99.90
2023-03-24T05:57:19.895Z,99.90
2023-03-24T06:00:25.383Z,99.90
2023-03-24T06:03:06.265Z,99.90
2023-03-24T06:05:48.343Z,99.90
2023-03-24T06:08:22.742Z,99.90
2023-03-24T06:10:54.301Z,99.90
2023-03-24T06:13:26.177Z,99.90
2023-03-24T06:16:01.481Z,99.90
2023-03-24T06:18:43.578Z,99.90
2023-03-24T06:21:33.251Z,99.90
2023-03-24T06:24:08.566Z,99.90
2023-03-24T06:26:42.374Z,99.90
2023-03-24T06:29:13.829Z,99.90
2023-03-24T06:31:44.898Z,99.90
2023-03-24T06:34:15.903Z,99.90
2023-03-24T06:36:51.760Z,99.90
2023-03-24T06:39:25.818Z,99.90
2023-03-24T06:41:57.758Z,99.90
2023-03-24T06:44:29.662Z,99.90
2023-03-24T06:47:01.121Z,99.90
2023-03-24T06:49:32.012Z,99.90
2023-03-24T06:52:03.246Z,99.90
2023-03-24T06:54:39.655Z,99.90
2023-03-24T06:57:12.289Z,99.90
2023-03-24T07:00:06.132Z,99.90
2023-03-24T07:02:43.584Z,99.90
2023-03-24T07:05:14.955Z,99.90
2023-03-24T07:10:38.870Z,99.90
2023-03-24T07:13:10.383Z,99.90
2023-03-24T07:15:43.109Z,99.90
2023-03-24T07:18:16.439Z,99.90
2023-03-24T07:20:49.586Z,99.90
2023-03-24T07:23:25.891Z,99.90
2023-03-24T07:26:19.309Z,99.70
2023-03-24T07:28:53.476Z,99.70
2023-03-24T07:31:50.626Z,99.70
2023-03-24T07:34:21.814Z,99.40
2023-03-24T07:36:53.753Z,99.60
2023-03-24T07:39:25.376Z,99.30
2023-03-24T07:41:59.319Z,99.20
2023-03-24T07:44:44.899Z,99.00
2023-03-24T07:47:16.015Z,98.90
2023-03-24T07:49:47.205Z,98.60
2023-03-24T07:52:18.040Z,98.50
2023-03-24T07:54:54.089Z,98.60
2023-03-24T07:57:49.405Z,98.40
2023-03-24T08:00:21.977Z,98.40
2023-03-24T08:03:19.170Z,98.30
2023-03-24T08:06:14.268Z,98.10
2023-03-24T08:08:49.391Z,97.70
2023-03-24T08:11:20.407Z,97.50
2023-03-24T08:13:54.275Z,97.40
2023-03-24T08:16:25.373Z,97.40
2023-03-24T08:18:58.490Z,97.20
2023-03-24T08:21:29.527Z,97.20
2023-03-24T08:24:00.542Z,96.90
2023-03-24T08:26:35.555Z,96.50
2023-03-24T08:29:09.176Z,96.50
2023-03-24T08:31:40.738Z,96.30
2023-03-24T08:34:12.535Z,96.30
2023-03-24T08:36:43.914Z,96.20
2023-03-24T08:39:14.506Z,96.00
2023-03-24T08:41:46.701Z,96.00
2023-03-24T08:44:19.906Z,95.90
2023-03-24T08:46:50.968Z,95.80
2023-03-24T08:49:21.702Z,95.90
2023-03-24T08:51:52.688Z,95.70
2023-03-24T08:54:25.112Z,95.90
2023-03-24T08:56:56.166Z,95.50
2023-03-24T08:59:29.591Z,95.30
2023-03-24T09:02:00.566Z,95.30
2023-03-24T09:04:31.282Z,95.10
2023-03-24T09:07:03.147Z,94.80
2023-03-24T09:09:33.906Z,94.80
2023-03-24T09:12:05.150Z,94.40
2023-03-24T09:14:38.519Z,94.50
2023-03-24T09:17:09.647Z,94.20
2023-03-24T09:19:40.330Z,94.20
2023-03-24T09:22:11.222Z,94.10
2023-03-24T09:24:41.807Z,94.10
2023-03-24T09:27:12.942Z,94.40
2023-03-24T09:29:46.283Z,93.90
2023-03-24T09:32:17.161Z,93.80
2023-03-24T09:34:48.032Z,93.60
2023-03-24T09:37:18.993Z,93.50
2023-03-24T09:39:50.177Z,93.50
2023-03-24T09:42:25.419Z,93.60
2023-03-24T09:44:59.989Z,93.50
2023-03-24T09:47:33.182Z,93.60
2023-03-24T09:50:05.055Z,93.10
2023-03-24T09:52:38.037Z,93.20
2023-03-24T09:55:11.246Z,93.20
2023-03-24T09:57:43.711Z,93.00
2023-03-24T10:00:24.343Z,93.10
2023-03-24T10:02:57.399Z,93.00
2023-03-24T10:05:31.205Z,93.00
2023-03-24T10:08:03.300Z,93.00
2023-03-24T10:10:40.004Z,92.90
2023-03-24T10:13:16.531Z,92.50
2023-03-24T10:15:51.713Z,92.40
2023-03-24T10:18:30.941Z,92.30
2023-03-24T10:21:04.225Z,92.20
2023-03-24T10:23:37.709Z,92.40
2023-03-24T10:26:12.431Z,92.30
2023-03-24T10:28:47.566Z,92.40
2023-03-24T10:31:23.234Z,92.30
2023-03-24T10:33:54.396Z,92.30
2023-03-24T10:36:25.648Z,92.40
2023-03-24T10:38:58.681Z,92.60
2023-03-24T10:41:33.256Z,92.70
2023-03-24T10:44:04.261Z,92.80
2023-03-24T10:46:37.549Z,92.70
2023-03-24T10:49:20.063Z,92.80
2023-03-24T10:51:51.847Z,92.90
2023-03-24T10:54:23.855Z,93.00
2023-03-24T10:56:56.589Z,93.10
2023-03-24T10:59:32.470Z,93.00
2023-03-24T11:02:07.475Z,92.90
2023-03-24T11:04:39.754Z,92.70
2023-03-24T11:07:17.789Z,92.70
2023-03-24T11:09:49.508Z,92.70
2023-03-24T11:12:26.993Z,92.80
2023-03-24T11:15:17.539Z,92.80
2023-03-24T11:17:57.138Z,92.70
2023-03-24T11:20:30.138Z,92.80
2023-03-24T11:23:02.583Z,93.30
2023-03-24T11:25:35.106Z,93.70
2023-03-24T11:28:07.248Z,93.90
2023-03-24T11:30:39.127Z,94.20
2023-03-24T11:33:17.527Z,94.30
2023-03-24T11:35:59.087Z,94.40
2023-03-24T11:38:36.961Z,94.50
2023-03-24T11:41:09.933Z,94.40
2023-03-24T11:43:40.507Z,94.50
2023-03-24T11:46:17.438Z,94.50
2023-03-24T11:48:52.864Z,94.50
2023-03-24T11:51:28.913Z,94.60
2023-03-24T11:54:01.456Z,94.80
2023-03-24T11:56:36.837Z,95.10
2023-03-24T11:59:10.458Z,95.30
2023-03-24T12:01:43.004Z,95.50
2023-03-24T12:04:31.882Z,95.80
2023-03-24T12:07:15.083Z,95.80
2023-03-24T12:09:49.726Z,95.80
2023-03-24T12:12:24.586Z,95.80
2023-03-24T12:15:20.763Z,95.90
2023-03-24T12:18:02.221Z,96.10
2023-03-24T12:20:34.732Z,95.90
2023-03-24T12:23:12.255Z,95.90
2023-03-24T12:25:45.695Z,95.90
2023-03-24T12:28:23.209Z,95.90
2023-03-24T12:30:59.302Z,96.20
2023-03-24T12:33:38.784Z,95.80
2023-03-24T12:36:17.018Z,95.80
2023-03-24T12:38:59.257Z,95.80
2023-03-24T12:41:44.839Z,95.60
2023-03-24T12:44:23.156Z,95.70
2023-03-24T12:46:58.257Z,95.50
2023-03-24T12:49:39.740Z,95.50
2023-03-24T12:52:20.111Z,95.40
2023-03-24T12:55:03.258Z,95.40
2023-03-24T12:57:35.378Z,95.40
2023-03-24T13:00:11.341Z,95.20
2023-03-24T13:02:45.042Z,95.10
2023-03-24T13:05:18.921Z,95.10
2023-03-24T13:07:54.458Z,94.80
2023-03-24T13:10:29.982Z,94.70
2023-03-24T13:13:02.877Z,94.70
2023-03-24T13:15:36.916Z,94.60
2023-03-24T13:18:16.474Z,94.80
2023-03-24T13:20:49.357Z,94.60
2023-03-24T13:23:30.207Z,94.70
2023-03-24T13:26:09.332Z,94.50
2023-03-24T13:28:43.373Z,94.50
2023-03-24T13:31:15.339Z,94.50
2023-03-24T13:33:46.545Z,94.40
2023-03-24T13:36:32.850Z,94.40
2023-03-24T13:39:05.870Z,94.40
2023-03-24T13:41:42.257Z,94.30
2023-03-24T13:44:20.772Z,94.20
2023-03-24T13:47:10.011Z,94.20
2023-03-24T13:49:41.903Z,94.20
2023-03-24T13:52:24.394Z,94.20
2023-03-24T13:54:57.808Z,94.10
2023-03-24T13:57:31.763Z,93.90
2023-03-24T14:00:11.936Z,93.60
2023-03-24T14:02:50.615Z,93.50
2023-03-24T14:05:37.911Z,93.50
2023-03-24T14:08:19.772Z,93.30
2023-03-24T14:10:51.937Z,93.40
2023-03-24T14:13:36.796Z,93.10
2023-03-24T14:16:22.474Z,93.20
2023-03-24T14:18:53.578Z,93.00
2023-03-24T14:21:31.862Z,92.70
2023-03-24T14:24:04.511Z,92.80
2023-03-24T14:26:36.511Z,92.70
2023-03-24T14:29:37.650Z,92.50
2023-03-24T14:32:19.190Z,92.40
2023-03-24T14:34:54.732Z,92.10
2023-03-24T14:37:25.413Z,92.00
2023-03-24T14:39:57.665Z,91.90
2023-03-24T14:42:52.291Z,91.60
2023-03-24T14:45:38.230Z,91.80
2023-03-24T14:48:20.082Z,91.70
2023-03-24T14:50:51.169Z,91.60
2023-03-24T14:53:22.662Z,91.60
2023-03-24T14:55:54.036Z,91.60
2023-03-24T14:58:26.785Z,91.80
2023-03-24T15:01:06.990Z,91.60
2023-03-24T15:03:46.175Z,91.70
2023-03-24T15:06:17.791Z,91.70
2023-03-24T15:08:49.805Z,91.80
2023-03-24T15:11:22.136Z,91.80
2023-03-24T15:13:53.760Z,91.90
2023-03-24T15:16:26.781Z,91.80
2023-03-24T15:19:02.318Z,91.80
2023-03-24T15:21:36.069Z,91.90
2023-03-24T15:24:26.469Z,91.90
2023-03-24T15:26:58.178Z,91.90
2023-03-24T15:29:28.851Z,92.00
2023-03-24T15:31:59.878Z,92.00
2023-03-24T15:34:34.548Z,92.10
2023-03-24T15:37:08.206Z,92.10
2023-03-24T15:39:39.865Z,92.10
2023-03-24T15:42:11.528Z,92.20
2023-03-24T15:44:43.260Z,92.20
2023-03-24T15:47:17.623Z,92.20
2023-03-24T15:49:53.506Z,92.20
2023-03-24T15:52:28.957Z,92.20
2023-03-24T15:55:01.763Z,92.20
2023-03-24T15:57:40.888Z,92.20
2023-03-24T16:00:16.727Z,92.20
2023-03-24T16:02:52.548Z,92.30
2023-03-24T16:05:26.858Z,92.40
2023-03-24T16:08:01.710Z,92.90
2023-03-24T16:10:34.431Z,93.20
2023-03-24T16:13:26.487Z,93.70
2023-03-24T16:15:59.148Z,93.90
2023-03-24T16:18:35.060Z,94.20
2023-03-24T16:21:14.589Z,94.80
2023-03-24T16:23:45.940Z,95.40
2023-03-24T16:26:16.784Z,96.10
2023-03-24T16:28:48.300Z,96.60
2023-03-24T16:31:23.042Z,97.00
2023-03-24T16:33:56.004Z,96.80
2023-03-24T16:36:31.053Z,97.10
2023-03-24T16:39:03.033Z,97.50
2023-03-24T16:41:34.924Z,97.90
2023-03-24T16:44:06.025Z,98.70
2023-03-24T16:46:38.353Z,99.20
2023-03-24T16:49:11.254Z,99.60
2023-03-24T16:51:45.444Z,99.90
2023-03-24T16:54:17.811Z,99.90
2023-03-24T16:56:48.851Z,99.90
2023-03-24T16:59:21.098Z,99.90
2023-03-24T17:01:56.554Z,99.90
2023-03-24T17:04:31.568Z,99.90
2023-03-24T17:07:06.561Z,99.90
2023-03-24T17:09:38.372Z,99.90
2023-03-24T17:12:09.692Z,99.90
2023-03-24T17:14:40.738Z,99.90
2023-03-24T17:17:13.740Z,99.90
2023-03-24T17:19:44.953Z,99.90
2023-03-24T17:22:19.440Z,99.90
2023-03-24T17:24:51.554Z,99.90
2023-03-24T17:27:22.095Z,99.90
2023-03-24T17:29:53.091Z,99.90
2023-03-24T17:32:23.686Z,99.90
2023-03-24T17:34:54.670Z,99.90
2023-03-24T17:37:28.807Z,99.90
2023-03-24T17:40:01.279Z,99.90
2023-03-24T17:42:32.273Z,99.90
2023-03-24T17:45:03.380Z,99.90
2023-03-24T17:47:33.998Z,99.90
2023-03-24T17:50:09.958Z,99.90
2023-03-24T17:52:46.192Z,99.90
2023-03-24T17:55:17.958Z,99.90
2023-03-24T17:57:48.613Z,99.90
2023-03-24T18:00:20.096Z,99.90
2023-03-24T18:02:50.841Z,99.90
2023-03-24T18:05:21.948Z,99.90
2023-03-24T18:07:55.416Z,99.90
2023-03-24T18:10:26.309Z,99.90
2023-03-24T18:12:57.244Z,99.90
2023-03-24T18:15:28.202Z,99.90
2023-03-24T18:17:58.896Z,99.90
2023-03-24T18:20:30.572Z,99.90
2023-03-24T18:23:05.025Z,99.90
2023-03-24T18:25:36.315Z,99.90
2023-03-24T18:28:07.057Z,99.90
2023-03-24T18:30:37.974Z,99.90
2023-03-24T18:33:09.245Z,99.90
2023-03-24T18:35:42.204Z,99.90
2023-03-24T18:38:21.909Z,99.90
2023-03-24T18:40:59.985Z,99.90
2023-03-24T18:43:31.263Z,99.90
2023-03-24T18:46:02.237Z,99.90
2023-03-24T18:48:33.018Z,99.90
2023-03-24T18:51:04.041Z,99.90
2023-03-24T18:53:38.362Z,99.90
2023-03-24T18:56:10.597Z,99.90
2023-03-24T18:58:43.607Z,99.90
2023-03-24T19:01:15.304Z,99.90
2023-03-24T19:03:46.585Z,99.90
2023-03-24T19:06:18.125Z,99.90
2023-03-24T19:08:53.432Z,99.90
2023-03-24T19:11:24.585Z,99.90
2023-03-24T19:13:55.174Z,99.90
2023-03-24T19:16:26.378Z,99.90
2023-03-24T19:18:58.131Z,99.90
2023-03-24T19:21:29.287Z,99.90
2023-03-24T19:24:02.530Z,99.90
2023-03-24T19:26:34.368Z,99.90
2023-03-24T19:29:05.026Z,99.90
2023-03-24T19:31:36.077Z,99.90
2023-03-24T19:34:06.690Z,99.90
2023-03-24T19:36:41.852Z,99.90
2023-03-24T19:39:17.704Z,99.90
2023-03-24T19:41:48.924Z,99.90
2023-03-24T19:44:19.706Z,99.90
2023-03-24T19:46:50.607Z,99.90
2023-03-24T19:49:21.750Z,99.90
2023-03-24T19:51:53.919Z,99.90
2023-03-24T19:54:27.574Z,99.90
2023-03-24T19:56:59.016Z,99.90
2023-03-24T19:59:29.676Z,99.90
2023-03-24T20:02:01.192Z,99.90
2023-03-24T20:04:32.000Z,99.90
2023-03-24T20:07:03.838Z,99.90
2023-03-24T20:09:37.241Z,99.90
2023-03-24T20:12:08.421Z,99.90
2023-03-24T20:14:39.512Z,99.90
2023-03-24T20:17:11.606Z,99.90
2023-03-24T20:19:43.082Z,99.90
2023-03-24T20:22:14.617Z,99.90
2023-03-24T20:24:48.767Z,99.90
2023-03-24T20:27:20.057Z,99.90
2023-03-24T20:29:51.257Z,99.90
2023-03-24T20:32:22.388Z,99.90
2023-03-24T20:34:53.172Z,99.90
2023-03-24T20:37:26.049Z,99.90
2023-03-24T20:39:59.732Z,99.90
2023-03-24T20:42:30.947Z,99.90
2023-03-24T20:45:01.596Z,99.90
2023-03-24T20:47:32.644Z,99.90
2023-03-24T20:50:03.540Z,99.90
2023-03-24T20:52:35.854Z,99.90
2023-03-24T20:55:10.509Z,99.90
2023-03-24T20:57:42.673Z,99.90
2023-03-24T21:00:15.577Z,99.90
2023-03-24T21:02:47.801Z,99.90
2023-03-24T21:05:18.684Z,99.90
2023-03-24T21:07:49.969Z,99.90
2023-03-24T21:10:23.286Z,99.90
2023-03-24T21:12:54.915Z,99.90
2023-03-24T21:15:26.700Z,99.90
2023-03-24T21:17:57.949Z,99.90
2023-03-24T21:20:31.010Z,99.90
2023-03-24T21:23:04.723Z,99.90
2023-03-24T21:25:40.017Z,99.90
2023-03-24T21:28:11.734Z,99.90
2023-03-24T21:30:42.482Z,99.90
2023-03-24T21:33:13.479Z,99.90
2023-03-24T21:35:44.161Z,99.90
2023-03-24T21:38:16.285Z,99.90
2023-03-24T21:40:50.080Z,99.90
2023-03-24T21:43:21.126Z,99.90
2023-03-24T21:45:54.216Z,99.90
2023-03-24T21:48:25.318Z,99.90
2023-03-24T21:50:56.778Z,99.90
2023-03-24T21:53:27.800Z,99.90
2023-03-24T21:56:04.836Z,99.90
2023-03-24T21:58:36.085Z,99.90
2023-03-24T22:01:06.794Z,99.90
2023-03-24T22:03:38.245Z,99.90
2023-03-24T22:06:13.226Z,99.90
2023-03-24T22:08:49.072Z,99.90
2023-03-24T22:11:22.510Z,99.90
2023-03-24T22:13:54.060Z,99.90
2023-03-24T22:16:24.584Z,99.90
2023-03-24T22:18:57.772Z,99.90
2023-03-24T22:21:29.823Z,99.90
2023-03-24T22:24:00.773Z,99.90
2023-03-24T22:26:34.071Z,99.90
2023-03-24T22:29:05.079Z,99.90
2023-03-24T22:31:35.749Z,99.90
2023-03-24T22:34:07.150Z,99.90
2023-03-24T22:36:37.798Z,99.90
2023-03-24T22:39:08.940Z,99.90
2023-03-24T22:41:44.110Z,99.90
2023-03-24T22:44:15.034Z,99.90
2023-03-24T22:46:45.746Z,99.90
2023-03-24T22:49:17.298Z,99.90
2023-03-24T22:51:47.888Z,99.90
2023-03-24T22:54:18.870Z,99.90
2023-03-24T22:56:52.050Z,99.90
2023-03-24T22:59:24.527Z,99.90
2023-03-24T23:02:06.364Z,99.90
2023-03-24T23:04:40.750Z,99.90
2023-03-24T23:07:11.590Z,99.90
2023-03-24T23:09:43.378Z,99.90
2023-03-24T23:12:16.809Z,99.90
2023-03-24T23:14:48.480Z,99.90
2023-03-24T23:17:24.473Z,99.90
2023-03-24T23:19:59.133Z,99.90
2023-03-24T23:22:30.439Z,99.90
2023-03-24T23:25:02.949Z,99.90
2023-03-24T23:27:39.231Z,99.90
2023-03-24T23:30:12.388Z,99.90
2023-03-24T23:32:44.292Z,99.90
2023-03-24T23:35:15.874Z,99.90
2023-03-24T23:37:47.164Z,99.90
2023-03-24T23:40:19.516Z,99.90
2023-03-24T23:42:52.725Z,99.90
2023-03-24T23:45:24.443Z,99.90
2023-03-24T23:47:55.439Z,99.90
2023-03-24T23:50:27.535Z,99.90
2023-03-24T23:52:59.456Z,99.90
2023-03-24T23:55:30.435Z,99.90
2023-03-24T23:58:04.642Z,99.90
